createdAt,value
2022-08-10T00:01:51.424Z,27.00
2022-08-10T00:04:22.157Z,26.80
2022-08-10T00:06:53.581Z,26.90
2022-08-10T00:09:22.369Z,27.10
2022-08-10T00:11:50.849Z,27.20
2022-08-10T00:14:19.154Z,27.30
2022-08-10T00:16:47.533Z,27.30
2022-08-10T00:19:16.397Z,27.50
2022-08-10T00:21:45.701Z,27.00
2022-08-10T00:24:15.430Z,26.90
2022-08-10T00:28:00.745Z,26.90
2022-08-10T00:29:32.573Z,26.90
2022-08-10T00:32:00.708Z,27.00
2022-08-10T00:34:29.004Z,27.00
2022-08-10T00:36:57.926Z,27.40
2022-08-10T00:39:28.625Z,27.00
2022-08-10T00:42:07.738Z,27.20
2022-08-10T00:44:37.683Z,27.00
2022-08-10T00:47:06.184Z,26.80
2022-08-10T00:49:34.726Z,27.00
2022-08-10T00:52:03.825Z,26.90
2022-08-10T00:54:33.733Z,27.00
2022-08-10T00:57:17.587Z,27.00
2022-08-10T00:59:58.688Z,27.00
2022-08-10T01:02:30.545Z,26.80
2022-08-10T01:05:02.317Z,26.90
2022-08-10T01:08:20.736Z,27.30
2022-08-10T01:11:05.560Z,26.90
2022-08-10T01:14:02.842Z,26.70
2022-08-10T01:16:38.034Z,26.90
2022-08-10T01:19:27.224Z,27.10
2022-08-10T01:22:28.957Z,27.00
2022-08-10T01:26:12.094Z,26.80
2022-08-10T01:28:52.172Z,26.80
2022-08-10T01:31:29.320Z,26.70
2022-08-10T01:34:04.545Z,26.80
2022-08-10T01:36:40.783Z,27.00
2022-08-10T01:39:10.449Z,26.80
2022-08-10T01:41:46.446Z,26.80
2022-08-10T01:44:20.981Z,26.80
2022-08-10T01:46:57.139Z,26.80
2022-08-10T01:49:26.973Z,26.80
2022-08-10T01:52:00.486Z,26.70
2022-08-10T01:54:31.363Z,26.80
2022-08-10T01:57:00.506Z,26.90
2022-08-10T01:59:35.244Z,26.90
2022-08-10T02:02:08.019Z,26.70
2022-08-10T02:04:39.689Z,26.80
2022-08-10T02:07:12.926Z,26.80
2022-08-10T02:09:46.518Z,27.00
2022-08-10T02:12:19.603Z,26.60
2022-08-10T02:14:53.025Z,26.80
2022-08-10T02:18:00.827Z,26.80
2022-08-10T02:20:21.136Z,27.10
2022-08-10T02:22:54.126Z,27.10
2022-08-10T02:25:42.609Z,26.80
2022-08-10T02:28:30.422Z,27.10
2022-08-10T02:31:06.215Z,27.20
2022-08-10T02:33:38.448Z,27.10
2022-08-10T02:36:09.805Z,27.20
2022-08-10T02:38:58.028Z,26.80
2022-08-10T02:45:02.630Z,26.80
2022-08-10T02:45:23.046Z,27.00
2022-08-10T02:47:26.322Z,26.70
2022-08-10T02:50:04.600Z,27.00
2022-08-10T02:52:43.376Z,26.80
2022-08-10T02:55:19.472Z,26.80
2022-08-10T02:58:16.867Z,26.90
2022-08-10T03:00:49.859Z,26.80
2022-08-10T03:03:23.480Z,26.80
2022-08-10T03:05:59.072Z,26.90
2022-08-10T03:08:32.313Z,26.80
2022-08-10T03:11:04.627Z,26.70
2022-08-10T03:13:34.717Z,27.10
2022-08-10T03:16:04.969Z,26.70
2022-08-10T03:18:34.572Z,26.60
2022-08-10T03:21:07.712Z,26.90
2022-08-10T03:23:39.713Z,26.70
2022-08-10T03:26:09.432Z,26.90
2022-08-10T03:28:37.816Z,26.60
2022-08-10T03:31:06.229Z,26.50
2022-08-10T03:33:38.126Z,26.70
2022-08-10T03:36:42.644Z,26.60
2022-08-10T03:38:57.138Z,26.60
2022-08-10T03:41:35.534Z,26.70
2022-08-10T03:44:06.448Z,26.80
2022-08-10T03:46:38.669Z,26.40
2022-08-10T03:49:08.140Z,26.80
2022-08-10T03:51:38.767Z,27.00
2022-08-10T03:54:07.783Z,27.00
2022-08-10T03:56:38.300Z,26.70
2022-08-10T03:59:08.727Z,26.80
2022-08-10T04:02:44.143Z,26.70
2022-08-10T04:04:26.145Z,26.80
2022-08-10T04:06:58.652Z,26.60
2022-08-10T04:09:29.748Z,26.80
2022-08-10T04:12:17.021Z,26.70
2022-08-10T04:14:49.604Z,26.60
2022-08-10T04:17:18.434Z,26.60
2022-08-10T04:20:09.570Z,26.20
2022-08-10T04:22:40.738Z,26.30
2022-08-10T04:25:10.796Z,26.10
2022-08-10T04:27:38.960Z,26.10
2022-08-10T04:30:08.972Z,26.10
2022-08-10T04:32:38.656Z,26.50
2022-08-10T04:35:11.516Z,26.10
2022-08-10T04:37:46.851Z,26.20
2022-08-10T04:40:25.440Z,26.20
2022-08-10T04:43:10.390Z,26.10
2022-08-10T04:45:48.832Z,26.20
2022-08-10T04:48:40.982Z,26.00
2022-08-10T04:51:17.159Z,26.10
2022-08-10T04:54:04.778Z,26.10
2022-08-10T04:56:38.073Z,25.90
2022-08-10T04:59:08.028Z,26.10
2022-08-10T05:02:13.525Z,25.90
2022-08-10T05:04:34.067Z,25.90
2022-08-10T05:07:08.969Z,26.30
2022-08-10T05:10:02.996Z,26.20
2022-08-10T05:12:28.113Z,26.00
2022-08-10T05:14:56.341Z,26.10
2022-08-10T05:17:24.790Z,26.10
2022-08-10T05:20:04.363Z,25.90
2022-08-10T05:22:39.904Z,26.30
2022-08-10T05:25:12.061Z,25.80
2022-08-10T05:27:41.444Z,25.90
2022-08-10T05:30:13.379Z,26.30
2022-08-10T05:32:58.390Z,25.90
2022-08-10T05:35:39.132Z,26.00
2022-08-10T05:38:22.099Z,25.90
2022-08-10T05:40:52.081Z,25.90
2022-08-10T05:43:22.887Z,26.20
2022-08-10T05:46:18.652Z,26.20
2022-08-10T05:48:56.492Z,26.00
2022-08-10T05:51:29.682Z,25.90
2022-08-10T05:54:01.837Z,26.00
2022-08-10T05:56:56.215Z,25.70
2022-08-10T06:00:29.395Z,25.70
2022-08-10T06:02:31.215Z,25.80
2022-08-10T06:05:12.408Z,25.60
2022-08-10T06:07:46.026Z,25.50
2022-08-10T06:10:31.086Z,25.50
2022-08-10T06:13:30.379Z,25.70
2022-08-10T06:16:06.769Z,25.60
2022-08-10T06:18:35.067Z,25.60
2022-08-10T06:21:04.496Z,25.70
2022-08-10T06:23:34.058Z,25.60
2022-08-10T06:26:12.075Z,26.00
2022-08-10T06:28:52.926Z,25.80
2022-08-10T06:31:46.915Z,26.10
2022-08-10T06:34:21.355Z,26.30
2022-08-10T06:36:50.664Z,26.00
2022-08-10T06:39:36.161Z,25.90
2022-08-10T06:42:17.632Z,26.00
2022-08-10T06:44:56.719Z,26.00
2022-08-10T06:47:31.797Z,26.30
2022-08-10T06:50:09.294Z,26.40
2022-08-10T06:52:39.667Z,26.00
2022-08-10T06:55:16.748Z,25.80
2022-08-10T06:57:59.671Z,26.30
2022-08-10T07:00:34.260Z,26.10
2022-08-10T07:03:10.587Z,26.30
2022-08-10T07:05:46.879Z,26.50
2022-08-10T07:08:19.729Z,26.50
2022-08-10T07:10:50.028Z,26.10
2022-08-10T07:14:14.085Z,26.20
2022-08-10T07:16:13.566Z,26.40
2022-08-10T07:18:44.377Z,26.30
2022-08-10T07:21:15.000Z,26.50
2022-08-10T07:23:57.015Z,26.50
2022-08-10T07:26:30.253Z,26.50
2022-08-10T07:29:00.377Z,26.60
2022-08-10T07:31:55.496Z,26.60
2022-08-10T07:34:29.315Z,26.70
2022-08-10T07:37:02.764Z,26.50
2022-08-10T07:40:02.460Z,26.60
2022-08-10T07:42:25.776Z,26.80
2022-08-10T07:44:54.057Z,26.70
2022-08-10T07:47:46.171Z,26.60
2022-08-10T07:50:20.320Z,26.80
2022-08-10T07:52:50.400Z,26.80
2022-08-10T07:56:04.465Z,27.00
2022-08-10T07:58:11.281Z,26.60
2022-08-10T08:00:40.757Z,26.80
2022-08-10T08:03:14.944Z,26.50
2022-08-10T08:06:03.152Z,26.80
2022-08-10T08:08:34.523Z,26.80
2022-08-10T08:11:04.028Z,26.80
2022-08-10T08:13:32.837Z,26.80
2022-08-10T08:16:17.836Z,26.90
2022-08-10T08:19:24.000Z,26.80
2022-08-10T08:24:04.587Z,26.80
2022-08-10T08:24:34.711Z,26.80
2022-08-10T08:27:04.792Z,27.00
2022-08-10T08:29:36.903Z,27.00
2022-08-10T08:32:07.382Z,27.10
2022-08-10T08:34:40.209Z,26.80
2022-08-10T08:37:11.445Z,27.00
2022-08-10T08:39:41.435Z,27.40
2022-08-10T08:42:29.014Z,26.80
2022-08-10T08:45:12.125Z,27.10
2022-08-10T08:48:08.528Z,27.00
2022-08-10T08:50:59.622Z,27.30
2022-08-10T08:54:03.540Z,27.40
2022-08-10T08:56:45.743Z,27.40
2022-08-10T08:59:34.471Z,27.00
2022-08-10T09:02:22.153Z,27.00
2022-08-10T09:05:24.290Z,27.50
2022-08-10T09:08:26.374Z,27.10
2022-08-10T09:11:01.842Z,27.50
2022-08-10T09:13:36.010Z,27.60
2022-08-10T09:16:21.114Z,27.00
2022-08-10T09:18:54.617Z,27.00
2022-08-10T09:21:32.052Z,27.00
2022-08-10T09:24:20.168Z,27.20
2022-08-10T09:26:52.525Z,27.10
2022-08-10T09:29:28.456Z,27.50
2022-08-10T09:35:40.102Z,27.40
2022-08-10T09:36:24.979Z,27.50
2022-08-10T09:38:12.985Z,27.10
2022-08-10T09:40:59.096Z,27.70
2022-08-10T09:43:42.471Z,27.70
2022-08-10T09:46:23.529Z,27.20
2022-08-10T09:49:05.149Z,27.20
2022-08-10T09:51:50.412Z,27.60
2022-08-10T09:54:40.448Z,27.20
2022-08-10T09:57:54.801Z,27.60
2022-08-10T10:00:12.525Z,27.70
2022-08-10T10:02:56.180Z,27.60
2022-08-10T10:05:39.460Z,27.40
2022-08-10T10:08:27.906Z,27.50
2022-08-10T10:11:05.322Z,27.70
2022-08-10T10:14:02.456Z,27.80
2022-08-10T10:16:49.141Z,28.00
2022-08-10T10:19:40.319Z,27.80
2022-08-10T10:22:26.312Z,27.70
2022-08-10T10:25:19.652Z,27.80
2022-08-10T10:28:04.136Z,27.30
2022-08-10T10:30:47.125Z,27.80
2022-08-10T10:33:22.075Z,27.70
2022-08-10T10:35:55.402Z,27.90
2022-08-10T10:38:27.773Z,27.50
2022-08-10T10:41:04.619Z,28.10
2022-08-10T10:43:54.261Z,27.80
2022-08-10T10:46:45.926Z,27.80
2022-08-10T10:49:27.841Z,27.50
2022-08-10T10:52:04.757Z,28.20
2022-08-10T10:54:41.473Z,27.80
2022-08-10T10:57:20.518Z,28.00
2022-08-10T10:59:57.890Z,28.20
2022-08-10T11:02:55.136Z,27.90
2022-08-10T11:05:35.134Z,28.20
2022-08-10T11:08:12.983Z,28.10
2022-08-10T11:10:52.713Z,28.10
2022-08-10T11:14:26.143Z,28.30
2022-08-10T11:16:26.031Z,28.30
2022-08-10T11:19:08.180Z,28.00
2022-08-10T11:21:49.949Z,28.30
2022-08-10T11:24:48.366Z,28.50
2022-08-10T11:27:22.585Z,28.10
2022-08-10T11:30:01.937Z,28.20
2022-08-10T11:32:44.042Z,28.20
2022-08-10T11:35:25.967Z,28.50
2022-08-10T11:38:32.669Z,28.20
2022-08-10T11:41:14.664Z,28.10
2022-08-10T11:44:10.301Z,28.20
2022-08-10T11:46:48.697Z,28.20
2022-08-10T11:49:31.660Z,28.20
2022-08-10T11:52:06.324Z,28.20
2022-08-10T11:54:42.904Z,28.30
2022-08-10T11:57:12.802Z,28.40
2022-08-10T11:59:59.314Z,28.30
2022-08-10T12:02:35.113Z,28.20
2022-08-10T12:05:09.902Z,28.50
2022-08-10T12:08:54.755Z,28.40
2022-08-10T12:10:40.623Z,28.40
2022-08-10T12:13:14.154Z,28.40
2022-08-10T12:15:51.768Z,28.40
2022-08-10T12:18:26.153Z,28.50
2022-08-10T12:21:01.518Z,28.90
2022-08-10T12:23:41.734Z,28.50
2022-08-10T12:26:16.129Z,28.60
2022-08-10T12:28:52.565Z,28.50
2022-08-10T12:31:28.089Z,28.50
2022-08-10T12:34:10.030Z,28.50
2022-08-10T12:36:43.259Z,28.80
2022-08-10T12:39:19.584Z,28.50
2022-08-10T12:41:55.740Z,28.40
2022-08-10T12:44:41.566Z,28.40
2022-08-10T12:47:21.793Z,28.40
2022-08-10T12:50:29.199Z,28.60
2022-08-10T12:52:58.397Z,28.90
2022-08-10T12:55:29.805Z,28.70
2022-08-10T12:57:59.727Z,29.30
2022-08-10T13:00:31.769Z,29.10
2022-08-10T13:03:01.548Z,29.10
2022-08-10T13:06:02.428Z,28.70
2022-08-10T13:08:40.600Z,29.20
2022-08-10T13:12:14.245Z,29.10
2022-08-10T13:14:09.823Z,29.30
2022-08-10T13:16:39.015Z,28.60
2022-08-10T13:19:08.752Z,29.30
2022-08-10T13:21:39.796Z,28.60
2022-08-10T13:24:13.808Z,29.10
2022-08-10T13:27:24.969Z,29.10
2022-08-10T13:29:45.141Z,29.00
2022-08-10T13:32:23.273Z,29.10
2022-08-10T13:34:52.713Z,29.00
2022-08-10T13:37:26.794Z,29.20
2022-08-10T13:40:00.739Z,28.70
2022-08-10T13:42:35.176Z,29.00
2022-08-10T13:45:10.476Z,29.00
2022-08-10T13:47:48.840Z,29.00
2022-08-10T13:50:33.553Z,28.90
2022-08-10T13:53:14.424Z,29.10
2022-08-10T13:55:54.270Z,28.90
2022-08-10T13:58:30.647Z,28.70
2022-08-10T14:01:00.930Z,28.70
2022-08-10T14:03:35.155Z,28.90
2022-08-10T14:06:06.711Z,28.70
2022-08-10T14:08:36.722Z,29.30
2022-08-10T14:11:12.687Z,28.70
2022-08-10T14:13:53.125Z,28.70
2022-08-10T14:16:22.433Z,29.10
2022-08-10T14:18:54.585Z,28.60
2022-08-10T14:21:23.398Z,28.90
2022-08-10T14:23:53.772Z,29.00
2022-08-10T14:26:25.939Z,28.90
2022-08-10T14:28:58.672Z,28.60
2022-08-10T14:31:37.312Z,28.50
2022-08-10T14:34:09.421Z,28.80
2022-08-10T14:36:43.984Z,28.60
2022-08-10T14:39:16.812Z,28.50
2022-08-10T14:42:01.208Z,28.50
2022-08-10T14:44:47.493Z,28.90
2022-08-10T14:47:52.495Z,28.60
2022-08-10T14:50:10.216Z,28.50
2022-08-10T14:52:44.443Z,28.80
2022-08-10T14:55:19.372Z,28.70
2022-08-10T14:58:18.922Z,28.90
2022-08-10T15:00:43.166Z,28.60
2022-08-10T15:03:58.323Z,28.50
2022-08-10T15:06:18.189Z,28.40
2022-08-10T15:08:47.710Z,28.80
2022-08-10T15:12:13.571Z,28.40
2022-08-10T15:14:15.146Z,28.70
2022-08-10T15:16:59.546Z,28.50
2022-08-10T15:20:03.607Z,28.30
2022-08-10T15:22:42.012Z,28.50
2022-08-10T15:25:18.624Z,28.80
2022-08-10T15:27:54.987Z,28.90
2022-08-10T15:30:31.402Z,28.80
2022-08-10T15:34:02.508Z,28.90
2022-08-10T15:36:33.951Z,28.50
2022-08-10T15:39:05.563Z,28.30
2022-08-10T15:41:58.106Z,28.30
2022-08-10T15:44:39.077Z,28.80
2022-08-10T15:47:15.173Z,28.40
2022-08-10T15:49:53.652Z,28.40
2022-08-10T15:52:39.434Z,28.20
2022-08-10T15:55:43.418Z,28.70
2022-08-10T15:58:13.003Z,28.30
2022-08-10T16:00:50.393Z,28.30
2022-08-10T16:03:25.810Z,28.60
2022-08-10T16:06:01.501Z,28.60
2022-08-10T16:08:56.337Z,28.20
2022-08-10T16:11:38.659Z,28.20
2022-08-10T16:14:14.134Z,28.30
2022-08-10T16:16:46.817Z,28.20
2022-08-10T16:19:24.112Z,28.20
2022-08-10T16:22:02.809Z,28.50
2022-08-10T16:24:51.610Z,28.10
2022-08-10T16:27:25.022Z,28.40
2022-08-10T16:30:00.356Z,28.30
2022-08-10T16:32:31.518Z,28.40
2022-08-10T16:35:04.595Z,28.40
2022-08-10T16:37:57.655Z,28.70
2022-08-10T16:40:29.249Z,28.30
2022-08-10T16:43:00.030Z,28.50
2022-08-10T16:45:34.788Z,28.20
2022-08-10T16:48:03.522Z,28.50
2022-08-10T16:50:36.505Z,28.50
2022-08-10T16:53:11.472Z,28.30
2022-08-10T16:55:49.886Z,28.10
2022-08-10T16:58:27.211Z,28.40
2022-08-10T17:01:02.638Z,28.30
2022-08-10T17:04:06.284Z,28.50
2022-08-10T17:06:31.691Z,28.40
2022-08-10T17:09:04.869Z,28.60
2022-08-10T17:11:36.878Z,28.10
2022-08-10T17:14:09.698Z,28.60
2022-08-10T17:16:41.559Z,28.80
2022-08-10T17:19:15.451Z,28.70
2022-08-10T17:21:51.525Z,28.20
2022-08-10T17:24:25.332Z,28.30
2022-08-10T17:26:57.147Z,28.40
2022-08-10T17:29:59.099Z,28.60
2022-08-10T17:32:25.584Z,28.70
2022-08-10T17:34:58.644Z,28.50
2022-08-10T17:37:32.630Z,28.40
2022-08-10T17:40:08.494Z,28.30
2022-08-10T17:42:39.742Z,28.50
2022-08-10T17:45:14.966Z,28.60
2022-08-10T17:47:51.345Z,28.50
2022-08-10T17:50:24.066Z,28.60
2022-08-10T17:52:59.800Z,28.50
2022-08-10T17:55:35.401Z,28.10
2022-08-10T17:58:05.858Z,28.40
2022-08-10T18:00:34.361Z,28.20
2022-08-10T18:03:04.007Z,28.20
2022-08-10T18:05:34.680Z,28.60
2022-08-10T18:08:08.937Z,28.60
2022-08-10T18:10:40.210Z,28.30
2022-08-10T18:13:09.124Z,28.30
2022-08-10T18:15:39.532Z,28.60
2022-08-10T18:18:16.101Z,28.50
2022-08-10T18:20:44.625Z,28.40
2022-08-10T18:23:14.512Z,28.40
2022-08-10T18:25:46.658Z,28.10
2022-08-10T18:28:20.297Z,28.00
2022-08-10T18:30:52.217Z,28.00
2022-08-10T18:33:28.069Z,28.10
2022-08-10T18:35:57.637Z,28.40
2022-08-10T18:38:27.917Z,27.90
2022-08-10T18:41:04.578Z,28.00
2022-08-10T18:44:06.777Z,27.90
2022-08-10T18:46:47.264Z,28.00
2022-08-10T18:49:27.216Z,28.00
2022-08-10T18:51:59.047Z,28.00
2022-08-10T18:54:39.584Z,27.90
2022-08-10T18:57:36.932Z,28.10
2022-08-10T19:00:14.110Z,27.90
2022-08-10T19:03:20.931Z,28.00
2022-08-10T19:06:20.751Z,28.10
2022-08-10T19:09:45.522Z,28.00
2022-08-10T19:12:29.834Z,28.00
2022-08-10T19:15:17.372Z,28.00
2022-08-10T19:18:05.534Z,28.00
2022-08-10T19:20:40.505Z,27.90
2022-08-10T19:23:35.775Z,27.70
2022-08-10T19:26:44.933Z,27.90
2022-08-10T19:30:09.221Z,27.90
2022-08-10T19:32:28.972Z,27.90
2022-08-10T19:35:08.736Z,27.90
2022-08-10T19:37:59.994Z,27.90
2022-08-10T19:40:44.258Z,27.60
2022-08-10T19:43:30.846Z,27.70
2022-08-10T19:46:25.934Z,27.60
2022-08-10T19:49:04.964Z,27.70
2022-08-10T19:51:55.311Z,27.70
2022-08-10T19:54:32.575Z,27.50
2022-08-10T19:57:10.739Z,27.80
2022-08-10T20:00:16.478Z,27.80
2022-08-10T20:02:51.182Z,27.80
2022-08-10T20:05:30.700Z,27.60
2022-08-10T20:08:07.454Z,27.80
2022-08-10T20:10:44.899Z,27.90
2022-08-10T20:13:22.697Z,27.80
2022-08-10T20:16:06.593Z,27.70
2022-08-10T20:18:40.570Z,27.70
2022-08-10T20:21:15.085Z,27.70
2022-08-10T20:23:55.735Z,27.60
2022-08-10T20:26:29.360Z,27.60
2022-08-10T20:29:10.297Z,27.30
2022-08-10T20:31:55.101Z,27.60
2022-08-10T20:34:31.742Z,27.50
2022-08-10T20:37:06.812Z,27.70
2022-08-10T20:39:50.070Z,27.40
2022-08-10T20:42:24.470Z,27.70
2022-08-10T20:45:03.063Z,27.30
2022-08-10T20:47:53.777Z,27.70
2022-08-10T20:50:32.437Z,27.70
2022-08-10T20:53:09.470Z,27.60
2022-08-10T20:55:56.238Z,27.60
2022-08-10T20:58:40.718Z,27.70
2022-08-10T21:01:17.391Z,27.70
2022-08-10T21:04:13.369Z,27.90
2022-08-10T21:07:28.357Z,27.90
2022-08-10T21:10:19.666Z,27.40
2022-08-10T21:13:14.552Z,27.70
2022-08-10T21:15:56.512Z,27.90
2022-08-10T21:22:08.334Z,27.50
2022-08-10T21:24:47.024Z,27.80
2022-08-10T21:25:41.515Z,27.80
2022-08-10T21:27:47.131Z,27.90
2022-08-10T21:30:20.140Z,27.90
2022-08-10T21:32:59.298Z,27.80
2022-08-10T21:35:36.517Z,27.80
2022-08-10T21:38:13.232Z,28.00
2022-08-10T21:41:56.558Z,27.50
2022-08-10T21:45:07.904Z,27.70
2022-08-10T21:48:17.158Z,28.20
2022-08-10T21:51:16.609Z,27.70
2022-08-10T21:54:18.985Z,27.60
2022-08-10T21:57:15.462Z,27.90
2022-08-10T22:00:11.147Z,27.80
2022-08-10T22:02:58.061Z,27.60
2022-08-10T22:05:48.132Z,27.50
2022-08-10T22:08:38.866Z,27.70
2022-08-10T22:11:30.167Z,27.40
2022-08-10T22:14:25.650Z,27.90
2022-08-10T22:18:10.694Z,27.90
2022-08-10T22:20:30.592Z,27.90
2022-08-10T22:23:36.740Z,27.70
2022-08-10T22:26:37.592Z,27.90
2022-08-10T22:29:27.484Z,27.70
2022-08-10T22:32:43.837Z,28.10
2022-08-10T22:36:00.399Z,27.70
2022-08-10T22:39:06.121Z,27.70
2022-08-10T22:42:07.909Z,27.80
2022-08-10T22:45:00.273Z,27.90
2022-08-10T22:47:51.188Z,27.70
2022-08-10T22:50:21.689Z,27.80
2022-08-10T22:53:06.931Z,27.70
2022-08-10T22:56:07.948Z,27.70
2022-08-10T22:58:41.869Z,27.90
2022-08-10T23:01:37.998Z,27.70
2022-08-10T23:04:16.369Z,27.70
2022-08-10T23:06:52.763Z,27.70
2022-08-10T23:09:23.716Z,27.30
2022-08-10T23:11:56.444Z,27.70
2022-08-10T23:14:33.306Z,27.60
2022-08-10T23:17:21.705Z,28.00
2022-08-10T23:20:08.389Z,27.70
2022-08-10T23:22:39.659Z,27.90
2022-08-10T23:25:13.548Z,27.80
2022-08-10T23:27:44.948Z,27.80
2022-08-10T23:30:18.116Z,27.60
2022-08-10T23:32:51.199Z,27.70
2022-08-10T23:36:04.456Z,27.70
2022-08-10T23:38:16.011Z,27.50
2022-08-10T23:40:50.741Z,27.80
2022-08-10T23:43:22.557Z,27.70
2022-08-10T23:45:54.681Z,27.70
2022-08-10T23:48:27.132Z,27.80
2022-08-10T23:51:02.259Z,27.90
2022-08-10T23:53:35.404Z,27.70
2022-08-10T23:56:09.057Z,27.70
2022-08-10T23:58:44.760Z,27.60
